Time;durP1;ratioP1;P1;durP2;ratioP2;P2;SDS_P1;SDS_P2;PMS_P1;PMS_P2;Temp;Humidity;BMP_temperature;BMP_pressure;BME280_temperature;BME280_humidity;BME280_pressure;Samples;Min_cycle;Max_cycle;Signal;HPM_P1;HPM_P2
2023/12/19 00:01:07;;;;;;;2.65;2.10;;;6.90;99.90;;;;;;5048471;28;20220;-52
2023/12/19 00:03:35;;;;;;;2.58;2.05;;;6.90;99.90;;;;;;5050403;28;20224;-47
2023/12/19 00:06:04;;;;;;;2.30;1.73;;;6.90;99.90;;;;;;5047598;28;20274;-49
2023/12/19 00:08:32;;;;;;;2.25;1.80;;;6.90;99.90;;;;;;5055176;28;20225;-49
2023/12/19 00:11:00;;;;;;;2.92;1.90;;;6.90;99.90;;;;;;5044643;28;20202;-48
2023/12/19 00:13:29;;;;;;;3.65;2.70;;;6.90;99.90;;;;;;5038563;28;20686;-48
2023/12/19 00:15:57;;;;;;;2.90;2.05;;;6.90;99.90;;;;;;5040037;28;20189;-47
2023/12/19 00:18:26;;;;;;;2.55;2.17;;;6.90;99.90;;;;;;5045318;28;20213;-47
2023/12/19 00:20:54;;;;;;;2.80;2.25;;;6.90;99.90;;;;;;5047344;28;20192;-49
2023/12/19 00:23:23;;;;;;;2.38;1.85;;;6.90;99.90;;;;;;5053378;28;20231;-49
2023/12/19 00:25:51;;;;;;;2.45;1.92;;;6.90;99.90;;;;;;5050944;28;20585;-48
2023/12/19 00:28:19;;;;;;;2.90;2.20;;;6.90;99.90;;;;;;5039019;28;20227;-49
2023/12/19 00:30:48;;;;;;;2.60;1.90;;;6.90;99.90;;;;;;5039929;28;20221;-49
2023/12/19 00:33:16;;;;;;;2.90;2.40;;;6.90;99.90;;;;;;5053821;28;20724;-47
2023/12/19 00:35:45;;;;;;;2.72;2.20;;;6.90;99.90;;;;;;5049918;28;20228;-49
2023/12/19 00:38:13;;;;;;;2.88;2.05;;;6.90;99.90;;;;;;5040793;28;20239;-49
2023/12/19 00:40:41;;;;;;;2.58;1.75;;;6.90;99.90;;;;;;5050483;28;20190;-46
2023/12/19 00:43:09;;;;;;;2.30;1.60;;;6.90;99.90;;;;;;5034345;28;20251;-47
2023/12/19 00:45:37;;;;;;;1.85;1.52;;;6.90;99.90;;;;;;5046328;28;20243;-51
2023/12/19 00:48:07;;;;;;;2.42;2.15;;;6.90;99.90;;;;;;5042027;28;20211;-49
2023/12/19 00:50:35;;;;;;;2.35;1.40;;;6.90;99.90;;;;;;5045602;28;20310;-49
2023/12/19 00:53:03;;;;;;;3.78;2.50;;;6.90;99.90;;;;;;5043533;28;20255;-49
2023/12/19 00:55:31;;;;;;;2.47;1.65;;;6.90;99.90;;;;;;5050058;28;20614;-47
2023/12/19 00:57:59;;;;;;;2.30;1.58;;;6.90;99.90;;;;;;5037837;28;20302;-47
2023/12/19 01:00:27;;;;;;;2.50;1.80;;;6.80;99.90;;;;;;5047177;28;20581;-48
2023/12/19 01:02:55;;;;;;;1.95;1.50;;;6.90;99.90;;;;;;5054266;28;20698;-48
2023/12/19 01:05:25;;;;;;;2.50;1.50;;;6.90;99.90;;;;;;5050903;28;20211;-46
2023/12/19 01:07:53;;;;;;;1.90;1.70;;;6.90;99.90;;;;;;5049634;28;20213;-49
2023/12/19 01:10:21;;;;;;;2.72;1.40;;;6.90;99.90;;;;;;5054719;28;20269;-47
2023/12/19 01:12:49;;;;;;;2.47;1.98;;;6.90;99.90;;;;;;5041095;28;20308;-49
2023/12/19 01:15:18;;;;;;;2.10;1.63;;;6.90;99.90;;;;;;5050499;28;20212;-50
2023/12/19 01:17:46;;;;;;;2.10;1.33;;;6.90;99.90;;;;;;5043429;28;20219;-48
2023/12/19 01:20:14;;;;;;;3.17;1.38;;;6.90;99.90;;;;;;5042778;28;20222;-48
2023/12/19 01:22:43;;;;;;;1.80;1.40;;;6.90;99.90;;;;;;5046907;28;20217;-49
2023/12/19 01:25:11;;;;;;;2.10;1.60;;;6.90;99.90;;;;;;5047450;28;20254;-47
2023/12/19 01:27:39;;;;;;;2.20;1.52;;;6.80;99.90;;;;;;5036120;28;20209;-46
2023/12/19 01:30:09;;;;;;;2.47;1.65;;;6.90;99.90;;;;;;5058242;28;20590;-46
2023/12/19 01:32:37;;;;;;;1.90;1.20;;;6.90;99.90;;;;;;5035717;28;20221;-44
2023/12/19 01:35:06;;;;;;;2.17;1.40;;;6.90;99.90;;;;;;5056501;28;20227;-52
2023/12/19 01:37:34;;;;;;;2.10;1.35;;;6.80;99.90;;;;;;5041279;28;20246;-48
2023/12/19 01:40:07;;;;;;;2.72;1.90;;;6.90;99.90;;;;;;5052191;28;20217;-48
2023/12/19 01:42:35;;;;;;;1.73;1.30;;;6.90;99.90;;;;;;5042989;28;20613;-47
2023/12/19 01:45:11;;;;;;;2.30;1.40;;;6.90;99.90;;;;;;5048637;28;20200;-47
2023/12/19 01:47:41;;;;;;;2.63;1.50;;;6.90;99.90;;;;;;5041640;28;20313;-47
2023/12/19 01:50:09;;;;;;;2.22;1.40;;;6.90;99.90;;;;;;5045323;28;20315;-47
2023/12/19 01:52:41;;;;;;;2.30;1.70;;;6.90;99.90;;;;;;5041351;28;20248;-46
2023/12/19 01:55:12;;;;;;;2.17;1.27;;;6.90;99.90;;;;;;5041901;28;20404;-47
2023/12/19 01:57:40;;;;;;;2.00;1.42;;;6.90;99.90;;;;;;5038359;28;20219;-50
2023/12/19 02:00:12;;;;;;;2.10;1.20;;;6.80;99.90;;;;;;5051514;28;20216;-48
2023/12/19 02:02:40;;;;;;;2.08;1.38;;;6.90;99.90;;;;;;5054133;28;20220;-49
2023/12/19 02:05:09;;;;;;;2.05;1.67;;;6.80;99.90;;;;;;5053009;28;20203;-48
2023/12/19 02:07:37;;;;;;;2.58;1.63;;;6.90;99.90;;;;;;5041527;28;20225;-46
2023/12/19 02:10:06;;;;;;;2.40;1.40;;;6.90;99.90;;;;;;5042585;28;20650;-48
2023/12/19 02:12:35;;;;;;;2.25;1.27;;;6.90;99.90;;;;;;5040545;28;20248;-52
2023/12/19 02:15:05;;;;;;;2.05;1.40;;;6.90;99.90;;;;;;5049027;28;20238;-46
2023/12/19 02:17:33;;;;;;;2.30;1.50;;;6.80;99.90;;;;;;5058266;28;20779;-49
2023/12/19 02:20:01;;;;;;;2.60;1.65;;;6.80;99.90;;;;;;5057064;28;20480;-45
2023/12/19 02:22:32;;;;;;;2.55;1.50;;;6.90;99.90;;;;;;5042673;28;20251;-48
2023/12/19 02:25:01;;;;;;;2.47;1.73;;;6.90;99.90;;;;;;5049411;28;20287;-47
2023/12/19 02:27:30;;;;;;;2.20;1.50;;;6.80;99.90;;;;;;5048194;28;20373;-46
2023/12/19 02:29:58;;;;;;;1.88;1.48;;;6.90;99.90;;;;;;5058754;28;20678;-46
2023/12/19 02:32:26;;;;;;;3.05;1.80;;;6.80;99.90;;;;;;5053439;28;20220;-47
2023/12/19 02:34:54;;;;;;;1.88;1.52;;;6.90;99.90;;;;;;5053952;28;20201;-47
2023/12/19 02:37:22;;;;;;;2.08;1.42;;;6.80;99.90;;;;;;5047986;28;20220;-47
2023/12/19 02:39:50;;;;;;;1.90;1.45;;;6.90;99.90;;;;;;5051572;28;20295;-48
2023/12/19 02:42:20;;;;;;;1.73;1.15;;;6.80;99.90;;;;;;5046144;28;20223;-46
2023/12/19 02:44:48;;;;;;;2.80;1.92;;;6.80;99.90;;;;;;5046250;28;20198;-47
2023/12/19 02:47:16;;;;;;;2.45;1.60;;;6.90;99.90;;;;;;5059513;28;20231;-45
2023/12/19 02:49:44;;;;;;;1.83;1.30;;;6.80;99.90;;;;;;5057520;28;20244;-46
2023/12/19 02:52:12;;;;;;;2.00;1.40;;;6.80;99.90;;;;;;5053682;28;20236;-46
2023/12/19 02:54:40;;;;;;;2.78;1.52;;;6.80;99.90;;;;;;5041383;28;20192;-47
2023/12/19 02:57:08;;;;;;;1.73;1.20;;;6.80;99.90;;;;;;5048283;28;21053;-46
2023/12/19 02:59:37;;;;;;;2.63;1.73;;;6.80;99.90;;;;;;5048156;28;20244;-48
2023/12/19 03:02:05;;;;;;;2.42;1.77;;;6.80;99.90;;;;;;5059664;28;20578;-48
2023/12/19 03:04:33;;;;;;;2.55;1.45;;;6.80;99.90;;;;;;5050661;28;20648;-44
2023/12/19 03:07:02;;;;;;;2.25;1.48;;;6.80;99.90;;;;;;5052211;28;20234;-48
2023/12/19 03:09:30;;;;;;;2.50;1.80;;;6.80;99.90;;;;;;5057696;28;20710;-49
2023/12/19 03:12:00;;;;;;;1.95;1.48;;;6.80;99.90;;;;;;5053856;28;20567;-44
2023/12/19 03:14:28;;;;;;;1.63;1.30;;;6.80;99.90;;;;;;5050529;28;20199;-47
2023/12/19 03:16:57;;;;;;;1.80;1.10;;;6.80;99.90;;;;;;5051952;28;20728;-48
2023/12/19 03:19:25;;;;;;;2.30;1.70;;;6.80;99.90;;;;;;5048924;28;20216;-46
2023/12/19 03:21:54;;;;;;;2.55;1.38;;;6.80;99.90;;;;;;5046745;28;20225;-48
2023/12/19 03:24:22;;;;;;;2.08;1.38;;;6.80;99.90;;;;;;5049187;28;20205;-49
2023/12/19 03:26:50;;;;;;;1.90;1.50;;;6.80;99.90;;;;;;5048237;28;20226;-49
2023/12/19 03:29:18;;;;;;;2.35;1.55;;;6.80;99.90;;;;;;5053687;28;20218;-47
2023/12/19 03:31:46;;;;;;;2.25;1.15;;;6.80;99.90;;;;;;5053293;28;20226;-46
2023/12/19 03:34:16;;;;;;;2.45;1.65;;;6.80;99.90;;;;;;5055605;28;20201;-48
2023/12/19 03:36:44;;;;;;;2.40;1.60;;;6.80;99.90;;;;;;5045327;28;20205;-48
2023/12/19 03:39:12;;;;;;;2.20;1.30;;;6.80;99.90;;;;;;5055542;28;20220;-47
2023/12/19 03:41:40;;;;;;;1.80;1.35;;;6.80;99.90;;;;;;5054362;28;20610;-50
2023/12/19 03:44:28;;;;;;;2.17;1.60;;;6.80;99.90;;;;;;5051392;28;20196;-49
2023/12/19 03:46:56;;;;;;;1.85;1.30;;;6.80;99.90;;;;;;5053697;28;20619;-49
2023/12/19 03:49:27;;;;;;;2.40;1.40;;;6.80;99.90;;;;;;5047974;28;20647;-46
2023/12/19 03:51:55;;;;;;;2.35;1.40;;;6.80;99.90;;;;;;5052386;28;20221;-47
2023/12/19 03:54:24;;;;;;;2.42;1.58;;;6.80;99.90;;;;;;5047876;28;20211;-45
2023/12/19 03:56:53;;;;;;;2.03;1.52;;;6.80;99.90;;;;;;5055106;28;20256;-48
2023/12/19 03:59:21;;;;;;;2.10;1.23;;;6.80;99.90;;;;;;5045961;28;20239;-44
2023/12/19 04:01:51;;;;;;;1.95;1.35;;;6.80;99.90;;;;;;5052696;28;20316;-48
2023/12/19 04:04:19;;;;;;;2.30;1.35;;;6.80;99.90;;;;;;5053097;28;20225;-48
2023/12/19 04:06:49;;;;;;;2.60;1.58;;;6.80;99.90;;;;;;5051223;28;20221;-46
2023/12/19 04:09:17;;;;;;;1.75;1.23;;;6.80;99.90;;;;;;5050888;28;20302;-47
2023/12/19 04:11:47;;;;;;;2.05;1.10;;;6.80;99.90;;;;;;5052100;28;20571;-49
2023/12/19 04:14:16;;;;;;;1.90;1.10;;;6.80;99.90;;;;;;5049289;28;20223;-53
2023/12/19 04:16:44;;;;;;;2.20;1.13;;;6.80;99.90;;;;;;5048534;28;20900;-46
2023/12/19 04:19:12;;;;;;;1.90;1.20;;;6.80;99.90;;;;;;5057229;28;20616;-50
2023/12/19 04:21:41;;;;;;;1.80;1.05;;;6.80;99.90;;;;;;5037616;28;20203;-50
2023/12/19 04:24:11;;;;;;;1.80;1.15;;;6.90;99.90;;;;;;5046986;28;20195;-46
2023/12/19 04:26:39;;;;;;;2.03;1.35;;;6.90;99.90;;;;;;5042603;28;20279;-49
2023/12/19 04:29:07;;;;;;;1.88;1.30;;;6.80;99.90;;;;;;5043234;28;20599;-49
2023/12/19 04:31:35;;;;;;;1.80;1.35;;;6.90;99.90;;;;;;5039631;28;20192;-50
2023/12/19 04:34:03;;;;;;;2.28;1.38;;;6.80;99.90;;;;;;5051038;28;20217;-49
2023/12/19 04:36:31;;;;;;;1.92;1.15;;;6.80;99.90;;;;;;5046103;28;20668;-45
2023/12/19 04:39:00;;;;;;;1.73;1.08;;;6.90;99.90;;;;;;5056336;28;20223;-48
2023/12/19 04:41:29;;;;;;;1.55;1.00;;;6.90;99.90;;;;;;5051455;28;20198;-48
2023/12/19 04:43:57;;;;;;;1.52;0.80;;;6.90;99.90;;;;;;5043663;28;20292;-48
2023/12/19 04:46:25;;;;;;;1.90;1.10;;;6.90;99.90;;;;;;5048987;28;20196;-48
2023/12/19 04:48:55;;;;;;;1.63;1.10;;;6.90;99.90;;;;;;5050662;28;20218;-48
2023/12/19 04:51:23;;;;;;;2.78;1.15;;;6.80;99.90;;;;;;5056447;28;20197;-49
2023/12/19 04:53:51;;;;;;;2.50;1.10;;;6.90;99.90;;;;;;5042789;28;20280;-47
2023/12/19 04:56:20;;;;;;;1.50;0.80;;;6.90;99.90;;;;;;5053246;28;20633;-47
2023/12/19 04:58:49;;;;;;;1.75;1.08;;;6.90;99.90;;;;;;5039922;28;20233;-48
2023/12/19 05:01:17;;;;;;;1.83;1.10;;;6.90;99.90;;;;;;5054231;28;20223;-47
2023/12/19 05:03:45;;;;;;;2.08;1.10;;;6.90;99.90;;;;;;5053860;28;20274;-49
2023/12/19 05:06:16;;;;;;;2.10;1.10;;;6.90;99.90;;;;;;5052553;28;20659;-46
2023/12/19 05:08:45;;;;;;;1.88;1.33;;;6.90;99.90;;;;;;5046931;28;20224;-47
2023/12/19 05:11:14;;;;;;;1.80;1.10;;;6.90;99.90;;;;;;5058706;28;20822;-48
2023/12/19 05:13:42;;;;;;;1.70;1.30;;;6.90;99.90;;;;;;5045430;28;20225;-47
2023/12/19 05:16:13;;;;;;;2.40;1.00;;;6.90;99.90;;;;;;5055269;28;20289;-47
2023/12/19 05:18:41;;;;;;;1.40;0.90;;;6.90;99.90;;;;;;5047669;28;20240;-48
2023/12/19 05:21:10;;;;;;;1.73;1.15;;;6.90;99.90;;;;;;5039540;28;20197;-49
2023/12/19 05:23:39;;;;;;;1.90;1.08;;;6.90;99.90;;;;;;5038156;28;20213;-47
2023/12/19 05:26:08;;;;;;;1.35;0.85;;;6.90;99.90;;;;;;5058991;28;20234;-50
2023/12/19 05:28:37;;;;;;;1.73;0.90;;;6.90;99.90;;;;;;5043696;28;20294;-47
2023/12/19 05:31:05;;;;;;;1.48;0.93;;;6.90;99.90;;;;;;5045864;28;20197;-48
2023/12/19 05:33:35;;;;;;;1.60;1.00;;;6.90;99.90;;;;;;5045939;28;20293;-50
2023/12/19 05:36:04;;;;;;;1.67;0.90;;;6.90;99.90;;;;;;5050951;28;20205;-47
2023/12/19 05:38:32;;;;;;;1.63;0.80;;;6.90;99.90;;;;;;5054810;28;20277;-47
2023/12/19 05:41:02;;;;;;;1.60;0.90;;;6.90;99.90;;;;;;5061839;28;20203;-46
2023/12/19 05:43:30;;;;;;;2.28;1.00;;;6.90;99.90;;;;;;5043119;28;20216;-48
2023/12/19 05:45:59;;;;;;;1.90;1.20;;;6.90;99.90;;;;;;5060411;28;20555;-48
2023/12/19 05:48:27;;;;;;;1.85;1.02;;;6.90;99.90;;;;;;5054004;28;20278;-46
2023/12/19 05:50:57;;;;;;;1.58;0.88;;;6.90;99.90;;;;;;5057051;28;20281;-46
2023/12/19 05:53:25;;;;;;;1.73;1.00;;;6.90;99.90;;;;;;5049227;28;20669;-47
2023/12/19 05:55:53;;;;;;;1.30;0.70;;;6.90;99.90;;;;;;5061107;28;20221;-46
2023/12/19 05:58:21;;;;;;;1.20;0.70;;;6.90;99.90;;;;;;5047670;28;20211;-49
2023/12/19 06:00:49;;;;;;;1.67;0.98;;;6.90;99.90;;;;;;5056358;28;20576;-48
2023/12/19 06:03:17;;;;;;;1.90;1.10;;;6.90;99.90;;;;;;5048314;28;20647;-47
2023/12/19 06:05:46;;;;;;;1.70;1.00;;;6.90;99.90;;;;;;5055668;28;20201;-47
2023/12/19 06:08:17;;;;;;;1.50;0.93;;;6.90;99.90;;;;;;5049942;28;20278;-49
2023/12/19 06:10:45;;;;;;;2.10;0.93;;;6.90;99.90;;;;;;5051658;28;20197;-48
2023/12/19 06:13:13;;;;;;;1.65;1.15;;;6.90;99.90;;;;;;5049269;28;20299;-47
2023/12/19 06:15:41;;;;;;;1.77;1.20;;;6.90;99.90;;;;;;5043698;28;20194;-47
2023/12/19 06:18:09;;;;;;;1.80;0.90;;;6.90;99.90;;;;;;5052340;28;20270;-49
2023/12/19 06:20:39;;;;;;;1.83;0.90;;;6.90;99.90;;;;;;5046750;28;20664;-50
2023/12/19 06:23:08;;;;;;;1.40;1.00;;;6.90;99.90;;;;;;5036364;28;20307;-48
2023/12/19 06:25:38;;;;;;;2.50;1.02;;;6.90;99.90;;;;;;5046894;28;20272;-48
2023/12/19 06:28:06;;;;;;;1.30;1.15;;;6.90;99.90;;;;;;5050870;28;20228;-47
2023/12/19 06:30:34;;;;;;;1.50;0.80;;;6.90;99.90;;;;;;5044561;28;20229;-46
2023/12/19 06:33:06;;;;;;;1.77;0.90;;;6.90;99.90;;;;;;5057103;28;20277;-47
2023/12/19 06:35:34;;;;;;;1.40;0.80;;;6.90;99.90;;;;;;5044632;28;20197;-47
2023/12/19 06:38:02;;;;;;;2.05;0.85;;;6.90;99.90;;;;;;5051512;28;20283;-48
2023/12/19 06:40:31;;;;;;;1.30;0.75;;;6.90;99.90;;;;;;5046477;28;20403;-49
2023/12/19 06:43:02;;;;;;;1.58;0.90;;;6.90;99.90;;;;;;5040463;28;20649;-47
2023/12/19 06:45:32;;;;;;;1.30;0.73;;;6.90;99.90;;;;;;5050109;28;20209;-49
2023/12/19 06:48:02;;;;;;;2.70;1.00;;;6.90;99.90;;;;;;5059786;28;20250;-47
2023/12/19 06:50:30;;;;;;;1.98;0.90;;;6.90;99.90;;;;;;5046678;28;20215;-52
2023/12/19 06:52:58;;;;;;;1.40;0.70;;;6.90;99.90;;;;;;5050688;28;20266;-47
2023/12/19 06:55:27;;;;;;;2.00;1.00;;;6.90;99.90;;;;;;5048255;28;20278;-47
2023/12/19 06:57:56;;;;;;;1.30;0.93;;;6.90;99.90;;;;;;5037709;28;20234;-49
2023/12/19 07:00:28;;;;;;;2.70;0.75;;;6.90;99.90;;;;;;5049801;28;20223;-45
2023/12/19 07:02:56;;;;;;;1.98;1.00;;;6.90;99.90;;;;;;5058822;28;20229;-45
2023/12/19 07:05:24;;;;;;;1.63;1.15;;;6.90;99.90;;;;;;5054441;28;20200;-48
2023/12/19 07:07:52;;;;;;;1.60;1.00;;;6.90;99.90;;;;;;5050874;28;20229;-46
2023/12/19 07:10:20;;;;;;;1.60;0.95;;;6.90;99.90;;;;;;5047995;28;20615;-47
2023/12/19 07:12:48;;;;;;;2.35;1.10;;;6.90;99.90;;;;;;5045706;28;20208;-48
2023/12/19 07:15:16;;;;;;;2.55;1.20;;;6.90;99.90;;;;;;5046356;28;20242;-48
2023/12/19 07:17:46;;;;;;;1.35;0.65;;;6.90;99.90;;;;;;5048755;28;20244;-48
2023/12/19 07:20:14;;;;;;;1.80;1.10;;;6.90;99.90;;;;;;5054009;28;20312;-47
2023/12/19 07:22:42;;;;;;;1.60;0.73;;;6.90;99.90;;;;;;5032082;28;20227;-47
2023/12/19 07:25:11;;;;;;;1.63;0.95;;;6.90;99.90;;;;;;5045733;28;20192;-45
2023/12/19 07:27:39;;;;;;;1.40;0.80;;;6.90;99.90;;;;;;5048186;28;20220;-48
2023/12/19 07:30:12;;;;;;;3.97;1.13;;;6.90;99.90;;;;;;5043709;28;20224;-46
2023/12/19 07:32:41;;;;;;;2.28;0.93;;;6.90;99.90;;;;;;5040338;28;20227;-48
2023/12/19 07:35:13;;;;;;;2.03;0.90;;;7.00;99.90;;;;;;5054053;28;20207;-47
2023/12/19 07:37:42;;;;;;;1.85;0.80;;;6.90;99.90;;;;;;5045294;28;20252;-47
2023/12/19 07:40:11;;;;;;;4.43;1.52;;;6.90;99.90;;;;;;5038284;28;20454;-47
2023/12/19 07:42:40;;;;;;;1.50;1.10;;;6.90;99.90;;;;;;5044243;28;20311;-48
2023/12/19 07:45:09;;;;;;;1.40;0.80;;;6.90;99.90;;;;;;5045148;28;20554;-47
2023/12/19 07:47:37;;;;;;;2.78;1.10;;;7.00;99.90;;;;;;5057078;28;20702;-47
2023/12/19 07:50:07;;;;;;;1.50;0.85;;;7.00;99.90;;;;;;5040387;28;20654;-48
2023/12/19 07:52:37;;;;;;;2.15;1.17;;;6.90;99.90;;;;;;5043044;28;20221;-47
2023/12/19 07:55:09;;;;;;;1.50;0.95;;;6.90;99.90;;;;;;5044024;28;20618;-47
2023/12/19 07:57:38;;;;;;;1.85;1.02;;;7.00;99.90;;;;;;5042254;28;20213;-46
2023/12/19 08:00:08;;;;;;;1.50;1.00;;;7.00;99.90;;;;;;5055898;28;20211;-46
2023/12/19 08:02:42;;;;;;;1.90;0.98;;;6.90;99.90;;;;;;5048835;28;20308;-47
2023/12/19 08:05:12;;;;;;;2.72;1.10;;;7.00;99.90;;;;;;5049447;28;20225;-48
2023/12/19 08:07:41;;;;;;;2.00;0.75;;;7.00;99.90;;;;;;5046735;28;20318;-45
2023/12/19 08:10:10;;;;;;;1.40;0.85;;;7.00;99.90;;;;;;5046300;28;20246;-47
2023/12/19 08:12:39;;;;;;;1.95;0.93;;;6.90;99.90;;;;;;5045304;28;20217;-49
2023/12/19 08:15:09;;;;;;;1.95;0.88;;;7.00;99.90;;;;;;5058299;28;20303;-48
2023/12/19 08:17:37;;;;;;;1.90;1.08;;;7.00;99.90;;;;;;5057915;28;20591;-47
2023/12/19 08:20:07;;;;;;;2.55;1.38;;;6.90;99.90;;;;;;5047995;28;20209;-47
2023/12/19 08:22:35;;;;;;;3.33;1.20;;;7.00;99.90;;;;;;5039595;28;20443;-45
2023/12/19 08:25:05;;;;;;;1.50;0.90;;;7.00;99.90;;;;;;5060063;28;20224;-46
2023/12/19 08:27:35;;;;;;;4.70;1.13;;;7.10;99.90;;;;;;5047233;28;20300;-47
2023/12/19 08:30:04;;;;;;;2.15;0.80;;;7.10;99.90;;;;;;5055018;28;20567;-47
2023/12/19 08:32:32;;;;;;;2.45;0.85;;;7.10;99.90;;;;;;5055958;28;20716;-48
2023/12/19 08:35:00;;;;;;;1.73;0.80;;;7.00;99.90;;;;;;5053330;28;20195;-49
2023/12/19 08:37:28;;;;;;;2.47;0.85;;;7.00;99.90;;;;;;5043355;28;20232;-47
2023/12/19 08:39:57;;;;;;;1.60;0.90;;;7.00;99.90;;;;;;5053663;28;20712;-48
2023/12/19 08:42:27;;;;;;;1.90;0.90;;;7.00;99.90;;;;;;5036896;28;20213;-46
2023/12/19 08:44:55;;;;;;;1.55;0.77;;;7.00;99.90;;;;;;5056573;28;20193;-46
2023/12/19 08:47:24;;;;;;;2.30;1.08;;;7.00;99.90;;;;;;5050774;28;20606;-47
2023/12/19 08:49:52;;;;;;;4.30;1.10;;;7.00;99.90;;;;;;5050570;28;20300;-48
2023/12/19 08:52:22;;;;;;;1.60;1.02;;;7.00;99.90;;;;;;5050924;28;20293;-47
2023/12/19 08:54:52;;;;;;;3.28;0.93;;;7.00;99.90;;;;;;5037084;28;20671;-46
2023/12/19 08:57:20;;;;;;;1.50;0.95;;;7.00;99.90;;;;;;5042026;28;20247;-47
2023/12/19 08:59:49;;;;;;;1.90;0.90;;;7.00;99.90;;;;;;5047981;28;20254;-48
2023/12/19 09:02:17;;;;;;;2.10;1.00;;;7.00;99.90;;;;;;5045630;28;20752;-47
2023/12/19 09:04:45;;;;;;;1.70;0.90;;;7.00;99.90;;;;;;5043592;28;20672;-45
2023/12/19 09:07:13;;;;;;;3.38;1.00;;;7.00;99.90;;;;;;5040843;28;20213;-44
2023/12/19 09:09:41;;;;;;;2.00;1.00;;;7.00;99.90;;;;;;5042358;28;20217;-45
2023/12/19 09:12:09;;;;;;;1.88;0.90;;;7.00;99.90;;;;;;5038804;28;20232;-47
2023/12/19 09:14:37;;;;;;;1.70;0.88;;;7.00;99.90;;;;;;5052502;28;20292;-47
2023/12/19 09:17:07;;;;;;;2.10;0.90;;;7.00;99.90;;;;;;5056596;28;20665;-48
2023/12/19 09:19:38;;;;;;;2.28;0.80;;;7.00;99.90;;;;;;5045467;28;20235;-45
2023/12/19 09:22:07;;;;;;;2.67;1.05;;;7.00;99.90;;;;;;5050607;28;20223;-46
2023/12/19 09:24:35;;;;;;;1.85;0.70;;;7.00;99.90;;;;;;5053155;28;20196;-45
2023/12/19 09:27:03;;;;;;;1.33;0.85;;;7.00;99.90;;;;;;5054006;28;20227;-45
2023/12/19 09:29:32;;;;;;;2.17;1.08;;;7.10;99.90;;;;;;5052795;28;20597;-45
2023/12/19 09:32:02;;;;;;;3.08;0.70;;;7.00;99.90;;;;;;5054592;28;20236;-49
2023/12/19 09:34:32;;;;;;;1.90;0.90;;;7.00;99.90;;;;;;5052928;28;20258;-48
2023/12/19 09:37:00;;;;;;;2.55;0.85;;;7.00;99.90;;;;;;5054254;28;20244;-46
2023/12/19 09:39:28;;;;;;;1.40;0.93;;;7.10;99.90;;;;;;5052860;28;20221;-47
2023/12/19 09:41:58;;;;;;;3.20;0.90;;;7.10;99.90;;;;;;5044675;28;20243;-48
2023/12/19 09:44:27;;;;;;;2.15;1.20;;;7.10;99.90;;;;;;5058098;28;20669;-46
2023/12/19 09:46:55;;;;;;;1.65;0.95;;;7.10;99.90;;;;;;5060072;28;20230;-48
2023/12/19 09:49:25;;;;;;;1.35;0.70;;;7.10;99.90;;;;;;5060806;28;20208;-47
2023/12/19 09:51:56;;;;;;;3.13;0.77;;;7.10;99.90;;;;;;5051717;28;20239;-46
2023/12/19 09:54:25;;;;;;;1.80;0.88;;;7.10;99.90;;;;;;5047764;28;20677;-45
2023/12/19 09:56:53;;;;;;;2.47;1.08;;;7.00;99.90;;;;;;5058704;28;20204;-47
2023/12/19 09:59:21;;;;;;;1.50;0.82;;;7.10;99.90;;;;;;5051131;28;20338;-45
2023/12/19 10:01:49;;;;;;;1.40;0.80;;;7.10;99.90;;;;;;5044722;28;20655;-44
2023/12/19 10:04:18;;;;;;;3.33;1.27;;;7.10;99.90;;;;;;5060158;28;20215;-46
2023/12/19 10:06:56;;;;;;;1.90;0.80;;;7.10;99.90;;;;;;5041107;28;20591;-48
2023/12/19 10:09:24;;;;;;;1.30;0.70;;;7.10;99.90;;;;;;5053352;28;20258;-50
2023/12/19 10:12:06;;;;;;;2.38;0.70;;;7.10;99.90;;;;;;5051538;28;20209;-49
2023/12/19 10:14:34;;;;;;;1.90;0.88;;;7.10;99.90;;;;;;5057691;28;20442;-48
2023/12/19 10:17:04;;;;;;;1.88;1.20;;;7.10;99.90;;;;;;5060927;28;20615;-47
2023/12/19 10:19:33;;;;;;;1.65;1.00;;;7.10;99.90;;;;;;5054452;28;20228;-48
2023/12/19 10:22:10;;;;;;;2.95;1.33;;;7.10;99.90;;;;;;5055440;28;20617;-49
2023/12/19 10:24:38;;;;;;;3.35;0.90;;;7.10;99.90;;;;;;5056956;28;20224;-47
2023/12/19 10:27:07;;;;;;;2.10;1.00;;;7.10;99.90;;;;;;5056983;28;20618;-49
2023/12/19 10:29:37;;;;;;;2.63;1.00;;;7.10;99.90;;;;;;5051563;28;20213;-48
2023/12/19 10:32:16;;;;;;;1.85;0.95;;;7.10;99.90;;;;;;5058406;28;20223;-46
2023/12/19 10:34:45;;;;;;;4.40;1.00;;;7.10;99.90;;;;;;5045066;28;20288;-45
2023/12/19 10:37:18;;;;;;;1.73;1.02;;;7.10;99.90;;;;;;5051212;28;20220;-46
2023/12/19 10:39:47;;;;;;;2.85;0.90;;;7.10;99.90;;;;;;5050915;28;20227;-45
2023/12/19 10:42:19;;;;;;;2.15;1.10;;;7.10;99.90;;;;;;5045316;28;20244;-49
2023/12/19 10:44:50;;;;;;;3.67;0.85;;;7.10;99.90;;;;;;5054693;28;20201;-46
2023/12/19 10:47:18;;;;;;;2.53;1.00;;;7.10;99.90;;;;;;5052813;28;20224;-46
2023/12/19 10:49:47;;;;;;;3.45;1.30;;;7.10;99.90;;;;;;5048612;28;20233;-44
2023/12/19 10:52:25;;;;;;;1.63;0.82;;;7.20;99.90;;;;;;5050150;28;20229;-48
2023/12/19 10:55:01;;;;;;;1.95;0.80;;;7.10;99.90;;;;;;5045013;28;20243;-44
2023/12/19 10:57:48;;;;;;;3.58;0.90;;;7.10;99.90;;;;;;5049571;28;20217;-46
2023/12/19 11:00:21;;;;;;;2.30;1.40;;;7.20;99.90;;;;;;5052583;28;20222;-48
2023/12/19 11:03:05;;;;;;;3.03;1.30;;;7.10;99.90;;;;;;5049190;28;20764;-49
2023/12/19 11:05:40;;;;;;;2.30;1.10;;;7.10;99.90;;;;;;5047709;28;20209;-45
2023/12/19 11:08:14;;;;;;;1.50;0.55;;;7.20;99.90;;;;;;5045012;28;20247;-47
2023/12/19 11:10:48;;;;;;;2.08;1.08;;;7.10;99.90;;;;;;5044237;28;20688;-49
2023/12/19 11:13:17;;;;;;;2.15;1.00;;;7.10;99.90;;;;;;5044149;28;20247;-45
2023/12/19 11:15:51;;;;;;;2.85;0.98;;;7.20;99.90;;;;;;5045352;28;20725;-47
2023/12/19 11:18:30;;;;;;;1.98;1.17;;;7.10;99.90;;;;;;5054159;28;20232;-48
2023/12/19 11:21:05;;;;;;;2.25;0.82;;;7.10;99.90;;;;;;5039973;28;20221;-48
2023/12/19 11:23:43;;;;;;;2.00;1.05;;;7.10;99.90;;;;;;5046991;28;20225;-45
2023/12/19 11:26:17;;;;;;;3.17;1.00;;;7.20;99.90;;;;;;5054296;28;20193;-46
2023/12/19 11:28:46;;;;;;;3.33;0.73;;;7.20;99.90;;;;;;5042027;28;20220;-46
2023/12/19 11:31:30;;;;;;;2.13;0.80;;;7.20;99.90;;;;;;5050033;28;20239;-46
2023/12/19 11:34:01;;;;;;;1.95;0.80;;;7.20;99.90;;;;;;5059552;28;20226;-45
2023/12/19 11:36:30;;;;;;;2.20;0.95;;;7.20;99.90;;;;;;5047860;28;20667;-47
2023/12/19 11:39:25;;;;;;;2.00;0.82;;;7.20;99.90;;;;;;5050703;28;20227;-46
2023/12/19 11:41:54;;;;;;;2.75;0.80;;;7.20;99.90;;;;;;5042888;28;20197;-48
2023/12/19 11:44:34;;;;;;;1.58;0.90;;;7.20;99.90;;;;;;5042633;28;20210;-46
2023/12/19 11:47:15;;;;;;;1.30;0.80;;;7.20;99.90;;;;;;5052691;28;20228;-48
2023/12/19 11:49:44;;;;;;;5.68;0.90;;;7.20;99.90;;;;;;5038485;28;20205;-46
2023/12/19 11:52:31;;;;;;;2.03;0.90;;;7.20;99.90;;;;;;5043740;28;20240;-48
2023/12/19 11:55:02;;;;;;;1.77;0.80;;;7.20;99.90;;;;;;5051857;28;20205;-45
2023/12/19 11:57:32;;;;;;;3.00;1.05;;;7.20;99.90;;;;;;5048336;28;20223;-45
2023/12/19 12:00:01;;;;;;;3.00;1.25;;;7.20;99.90;;;;;;5053300;28;20266;-47
2023/12/19 12:02:39;;;;;;;1.85;0.80;;;7.20;99.90;;;;;;5032093;28;20213;-46
2023/12/19 12:05:09;;;;;;;1.70;0.90;;;7.20;99.90;;;;;;5042722;28;20210;-48
2023/12/19 12:07:42;;;;;;;3.50;1.05;;;7.20;99.90;;;;;;5038079;28;20218;-45
2023/12/19 12:10:16;;;;;;;2.65;1.15;;;7.20;99.90;;;;;;5040469;28;20209;-44
2023/12/19 12:12:44;;;;;;;1.48;0.90;;;7.20;99.90;;;;;;5044185;28;20229;-51
2023/12/19 12:15:16;;;;;;;2.08;1.27;;;7.20;99.90;;;;;;5053984;28;20253;-45
2023/12/19 12:17:44;;;;;;;2.45;0.90;;;7.20;99.90;;;;;;5048198;28;20221;-48
2023/12/19 12:20:13;;;;;;;2.40;0.80;;;7.20;99.90;;;;;;5052953;28;20295;-45
2023/12/19 12:22:41;;;;;;;1.50;0.80;;;7.20;99.90;;;;;;5051479;28;20225;-47
2023/12/19 12:25:12;;;;;;;3.20;1.10;;;7.20;99.90;;;;;;5049805;28;20677;-46
2023/12/19 12:27:40;;;;;;;1.52;0.65;;;7.20;99.90;;;;;;5045598;28;20279;-47
2023/12/19 12:30:11;;;;;;;1.52;0.68;;;7.20;99.90;;;;;;5048287;28;20214;-46
2023/12/19 12:32:41;;;;;;;2.35;0.80;;;7.20;99.90;;;;;;5054329;28;20242;-47
2023/12/19 12:35:28;;;;;;;2.53;0.90;;;7.20;99.90;;;;;;5049122;28;20620;-46
2023/12/19 12:37:57;;;;;;;2.08;0.93;;;7.20;99.90;;;;;;5044666;28;20216;-47
2023/12/19 12:40:27;;;;;;;1.88;0.93;;;7.20;99.90;;;;;;5050644;28;20242;-48
2023/12/19 12:43:26;;;;;;;1.90;0.80;;;7.20;99.90;;;;;;5046649;28;20258;-47
2023/12/19 12:46:07;;;;;;;1.50;0.73;;;7.20;99.90;;;;;;5049262;28;20212;-49
2023/12/19 12:48:36;;;;;;;1.92;1.02;;;7.20;99.90;;;;;;5057320;28;20575;-47
2023/12/19 12:51:05;;;;;;;2.03;0.88;;;7.20;99.90;;;;;;5036458;28;20265;-46
2023/12/19 12:53:34;;;;;;;1.58;1.00;;;7.20;99.90;;;;;;5047475;28;20222;-46
2023/12/19 12:56:16;;;;;;;1.75;0.77;;;7.20;99.90;;;;;;5054932;28;20197;-47
2023/12/19 12:58:46;;;;;;;1.60;1.00;;;7.20;99.90;;;;;;5045572;28;20224;-46
2023/12/19 13:01:14;;;;;;;2.17;0.93;;;7.20;99.90;;;;;;5047355;28;20204;-47
2023/12/19 13:03:43;;;;;;;1.60;1.00;;;7.20;99.90;;;;;;5049599;28;20257;-46
2023/12/19 13:06:11;;;;;;;3.15;0.80;;;7.20;99.90;;;;;;5042020;28;20200;-47
2023/12/19 13:08:39;;;;;;;1.92;1.00;;;7.20;99.90;;;;;;5054208;28;20330;-47
2023/12/19 13:11:08;;;;;;;2.85;1.05;;;7.20;99.90;;;;;;5054312;28;20259;-46